Skip Navigation Links Skip Navigation Links

Current Weather

Alexander Field South Wood County, Wisconsin Rapids, Wis.

For information only: do not use for flight planning or navigation.
Latest weather
Observation time Friday, December 3, 2021 3:54 AM CST
Local time Friday, December 3, 2021 4:27 AM CST
Flight conditions Instrument Meteorological Conditions
Winds
Wind speed calm
Visibility 2.5 mi.
Present weather light snow, mist
Sky condition
Ceiling 3,300 ft. overcast
Cloud layer overcast 3,300 ft.
Temperature 32°F
Dewpoint 31°F
Altimeter 30.05 in.Hg
Precipitation
Precipitation last hour trace
Derived measurements
Relative humidity 96%
Wind chill 32°F
Density altitude -873 ft.
Sea-level pressure 30.08 in.Hg
Remarks
Fully automated report.
Automated weather observing station with precipitation discriminator.
METAR KISW 030954Z AUTO 00000KT 2 1/2SM -SN BR OVC033 00/M01 A3005 RMK AO2 SLP186 P0000 T00001006

Settings

Location code

InnerDrive.Weather 4.0.6770.0 Release CLR 4.0.30319.42000
Copyright ©2018 Inner Drive Technology. All rights reserved. Portions Copyright ©1986-2018 David Braverman.

Find weather

Site navigation


Skip Navigation Links

Place info

Page info

PayPal - The safer, easier way to pay online!

Return home.

Copyright ©2021 Inner Drive Technology. Purveyors of fine, hand-crafted computer software. Page printed 2021-12-03T10:27:16 UTC.